Apiliotis — SYVY — position and weather

sailwx.info

Track history (hours):
 
Tides and Currents Weather Stations Pressure Air Temp Water Temp Dewpoint Dewpoint Depression Visibility Wind Speed Wind Dir Waves Ship Positions

Apiliotis

Last reported at 2015-Jan-28 02:26 UTC. Time now 2015-Jan-28 04:19 UTC.
Position N 36°43' E 026°15'.

Length 79 m; draft 4.5 m.

Type: Ship. MMSI: 240438000.

Date/timePositionNaut miles runAvg speedWind from/ knotsBaromVisibWave heightAir tempDewpointWater temp
2015-Jan-28 02:26N 36°43' E 026°15'54 1.5
2015-Jan-26 14:22N 37°37' E 026°18'77 2.0
2015-Jan-25 00:20N 38°53' E 026°26'910.0
2015-Jan-24 23:25N 38°58' E 026°36'  
2015-Jan-22 13:30N 39°52' E 025°01'1111.4
2015-Jan-22 12:31N 39°47' E 024°48'2511.1
2015-Jan-22 10:15N 39°37' E 024°18'811.4
2015-Jan-22 09:33N 39°34' E 024°09'104 2.9
2015-Jan-20 21:17N 37°50' E 024°26'27 9.6
2015-Jan-20 18:27N 37°38' E 023°56'1010.5
2015-Jan-20 17:33N 37°39' E 023°44'1111.0
2015-Jan-20 16:33N 37°49' E 023°37'9 9.2
2015-Jan-20 15:33N 37°57' E 023°33'5 4.6
2015-Jan-20 14:33N 38°02' E 023°32'0 0.1
2015-Jan-20 13:33N 38°02' E 023°32'3 2.8
2015-Jan-20 12:33N 38°02' E 023°36'0 0.0
2015-Jan-20 11:33N 38°02' E 023°36'0 0.0
2015-Jan-20 10:33N 38°02' E 023°36'0 0.0
2015-Jan-20 09:33N 38°02' E 023°36'0 0.0
2015-Jan-20 08:33N 38°02' E 023°36'0 0.0
2015-Jan-20 07:33N 38°02' E 023°36'3 2.9
2015-Jan-20 06:33N 38°01' E 023°32'0 0.0
2015-Jan-20 05:33N 38°01' E 023°32'0 0.0
2015-Jan-20 04:33N 38°01' E 023°32'0 0.0
2015-Jan-20 03:33N 38°01' E 023°32'0 0.0
2015-Jan-20 02:33N 38°01' E 023°32'0 0.1
2015-Jan-20 01:33N 38°01' E 023°32'0 0.0
2015-Jan-20 00:33N 38°01' E 023°32'0 0.0
2015-Jan-19 23:33N 38°01' E 023°32'0 0.0
2015-Jan-19 22:33N 38°01' E 023°32'0 0.0
2015-Jan-19 21:33N 38°01' E 023°32'0 0.0
2015-Jan-19 20:33N 38°01' E 023°32'0 0.1
2015-Jan-19 19:33N 38°01' E 023°32'0 0.0
2015-Jan-19 18:33N 38°01' E 023°32'0 0.0
2015-Jan-19 17:33N 38°01' E 023°32'0 0.0
2015-Jan-19 16:33N 38°01' E 023°32'0 0.0
2015-Jan-19 15:33N 38°01' E 023°32'0 0.0
2015-Jan-19 14:33N 38°01' E 023°32'0 0.0
2015-Jan-19 13:33N 38°01' E 023°32'1 0.5
2015-Jan-19 12:33N 38°02' E 023°32'0 0.1
2015-Jan-19 11:33N 38°02' E 023°32'0 0.0
2015-Jan-19 10:33N 38°02' E 023°32'0 0.0
2015-Jan-19 09:33N 38°02' E 023°32'0 0.0
2015-Jan-19 08:33N 38°02' E 023°32'0 0.0
2015-Jan-19 07:33N 38°02' E 023°32'1 0.8
2015-Jan-19 06:13N 38°01' E 023°33'6 9.1
2015-Jan-19 05:33N 37°55' E 023°35'4 4.1
2015-Jan-19 04:33N 37°52' E 023°39'1010.0
2015-Jan-19 03:33N 37°43' E 023°44'1110.1
2015-Jan-19 02:30N 37°36' E 023°54'4010.1
2015-Jan-18 22:33N 37°32' E 024°44'1110.8
2015-Jan-18 21:33N 37°32' E 024°58'1110.9
2015-Jan-18 20:33N 37°30' E 025°11'1010.3
2015-Jan-18 19:33N 37°31' E 025°24'1110.7
2015-Jan-18 18:33N 37°31' E 025°38'1010.2
2015-Jan-18 17:33N 37°30' E 025°50'  
Track history (hours):
 
Tides and Currents Weather Stations Pressure Air Temp Water Temp Dewpoint Dewpoint Depression Visibility Wind Speed Wind Dir Waves Ship Positions

Apiliotis

Last reported at 2015-Jan-28 02:26 UTC. Time now 2015-Jan-28 04:19 UTC.
Position N 36°43' E 026°15'.

Length 79 m; draft 4.5 m.

Type: Ship. MMSI: 240438000.

Date/timePositionNaut miles runAvg speedWind from/ knotsBaromVisibWave heightAir tempDewpointWater temp
2015-Jan-28 02:26N 36°43' E 026°15'54 1.5
2015-Jan-26 14:22N 37°37' E 026°18'77 2.0
2015-Jan-25 00:20N 38°53' E 026°26'910.0
2015-Jan-24 23:25N 38°58' E 026°36'  
2015-Jan-22 13:30N 39°52' E 025°01'1111.4
2015-Jan-22 12:31N 39°47' E 024°48'2511.1
2015-Jan-22 10:15N 39°37' E 024°18'811.4
2015-Jan-22 09:33N 39°34' E 024°09'104 2.9
2015-Jan-20 21:17N 37°50' E 024°26'27 9.6
2015-Jan-20 18:27N 37°38' E 023°56'1010.5
2015-Jan-20 17:33N 37°39' E 023°44'1111.0
2015-Jan-20 16:33N 37°49' E 023°37'9 9.2
2015-Jan-20 15:33N 37°57' E 023°33'5 4.6
2015-Jan-20 14:33N 38°02' E 023°32'0 0.1
2015-Jan-20 13:33N 38°02' E 023°32'3 2.8
2015-Jan-20 12:33N 38°02' E 023°36'0 0.0
2015-Jan-20 11:33N 38°02' E 023°36'0 0.0
2015-Jan-20 10:33N 38°02' E 023°36'0 0.0
2015-Jan-20 09:33N 38°02' E 023°36'0 0.0
2015-Jan-20 08:33N 38°02' E 023°36'0 0.0
2015-Jan-20 07:33N 38°02' E 023°36'3 2.9
2015-Jan-20 06:33N 38°01' E 023°32'0 0.0
2015-Jan-20 05:33N 38°01' E 023°32'0 0.0
2015-Jan-20 04:33N 38°01' E 023°32'0 0.0
2015-Jan-20 03:33N 38°01' E 023°32'0 0.0
2015-Jan-20 02:33N 38°01' E 023°32'0 0.1
2015-Jan-20 01:33N 38°01' E 023°32'0 0.0
2015-Jan-20 00:33N 38°01' E 023°32'0 0.0
2015-Jan-19 23:33N 38°01' E 023°32'0 0.0
2015-Jan-19 22:33N 38°01' E 023°32'0 0.0
2015-Jan-19 21:33N 38°01' E 023°32'0 0.0
2015-Jan-19 20:33N 38°01' E 023°32'0 0.1
2015-Jan-19 19:33N 38°01' E 023°32'0 0.0
2015-Jan-19 18:33N 38°01' E 023°32'0 0.0
2015-Jan-19 17:33N 38°01' E 023°32'0 0.0
2015-Jan-19 16:33N 38°01' E 023°32'0 0.0
2015-Jan-19 15:33N 38°01' E 023°32'0 0.0
2015-Jan-19 14:33N 38°01' E 023°32'0 0.0
2015-Jan-19 13:33N 38°01' E 023°32'1 0.5
2015-Jan-19 12:33N 38°02' E 023°32'0 0.1
2015-Jan-19 11:33N 38°02' E 023°32'0 0.0
2015-Jan-19 10:33N 38°02' E 023°32'0 0.0
2015-Jan-19 09:33N 38°02' E 023°32'0 0.0
2015-Jan-19 08:33N 38°02' E 023°32'0 0.0
2015-Jan-19 07:33N 38°02' E 023°32'1 0.8
2015-Jan-19 06:13N 38°01' E 023°33'6 9.1
2015-Jan-19 05:33N 37°55' E 023°35'4 4.1
2015-Jan-19 04:33N 37°52' E 023°39'1010.0
2015-Jan-19 03:33N 37°43' E 023°44'1110.1
2015-Jan-19 02:30N 37°36' E 023°54'4010.1
2015-Jan-18 22:33N 37°32' E 024°44'1110.8
2015-Jan-18 21:33N 37°32' E 024°58'1110.9
2015-Jan-18 20:33N 37°30' E 025°11'1010.3
2015-Jan-18 19:33N 37°31' E 025°24'1110.7
2015-Jan-18 18:33N 37°31' E 025°38'1010.2
2015-Jan-18 17:33N 37°30' E 025°50'  

Dump ship's entire track history